sensor_id;sensor_type;location;lat;lon;timestamp;P1;durP1;ratioP1;P2;durP2;ratioP2
37309;SDS011;23195;47.744;7.358;2023-03-03T00:01:01;128.70;;;48.70;;
37309;SDS011;23195;47.744;7.358;2023-03-03T00:03:28;121.90;;;47.63;;
37309;SDS011;23195;47.744;7.358;2023-03-03T00:05:54;120.47;;;46.37;;
37309;SDS011;23195;47.744;7.358;2023-03-03T00:08:20;116.17;;;45.80;;
37309;SDS011;23195;47.744;7.358;2023-03-03T00:10:47;119.67;;;46.87;;
37309;SDS011;23195;47.744;7.358;2023-03-03T00:13:18;118.80;;;46.07;;
37309;SDS011;23195;47.744;7.358;2023-03-03T00:15:46;123.27;;;46.67;;
37309;SDS011;23195;47.744;7.358;2023-03-03T00:18:29;125.77;;;47.60;;
37309;SDS011;23195;47.744;7.358;2023-03-03T00:21:00;115.90;;;45.93;;
37309;SDS011;23195;47.744;7.358;2023-03-03T00:23:34;113.50;;;45.80;;
37309;SDS011;23195;47.744;7.358;2023-03-03T00:26:17;114.80;;;45.97;;
37309;SDS011;23195;47.744;7.358;2023-03-03T00:34:52;120.00;;;46.87;;
37309;SDS011;23195;47.744;7.358;2023-03-03T00:37:26;122.53;;;49.03;;
37309;SDS011;23195;47.744;7.358;2023-03-03T00:42:48;126.87;;;46.53;;
37309;SDS011;23195;47.744;7.358;2023-03-03T00:47:52;121.33;;;47.03;;
37309;SDS011;23195;47.744;7.358;2023-03-03T00:50:25;121.87;;;47.73;;
37309;SDS011;23195;47.744;7.358;2023-03-03T00:55:30;114.73;;;45.40;;
37309;SDS011;23195;47.744;7.358;2023-03-03T00:57:59;116.57;;;45.00;;
37309;SDS011;23195;47.744;7.358;2023-03-03T01:00:25;118.07;;;44.83;;
37309;SDS011;23195;47.744;7.358;2023-03-03T01:02:51;125.77;;;47.23;;
37309;SDS011;23195;47.744;7.358;2023-03-03T01:05:17;119.97;;;47.43;;
37309;SDS011;23195;47.744;7.358;2023-03-03T01:07:44;121.33;;;47.50;;
37309;SDS011;23195;47.744;7.358;2023-03-03T01:10:10;108.90;;;44.27;;
37309;SDS011;23195;47.744;7.358;2023-03-03T01:12:36;112.90;;;46.50;;
37309;SDS011;23195;47.744;7.358;2023-03-03T01:15:03;112.37;;;45.73;;
37309;SDS011;23195;47.744;7.358;2023-03-03T01:17:30;116.40;;;44.97;;
37309;SDS011;23195;47.744;7.358;2023-03-03T01:19:56;117.33;;;44.17;;
37309;SDS011;23195;47.744;7.358;2023-03-03T01:22:22;120.90;;;46.20;;
37309;SDS011;23195;47.744;7.358;2023-03-03T01:24:47;119.97;;;46.87;;
37309;SDS011;23195;47.744;7.358;2023-03-03T01:27:13;123.73;;;47.47;;
37309;SDS011;23195;47.744;7.358;2023-03-03T01:29:39;119.87;;;47.53;;
37309;SDS011;23195;47.744;7.358;2023-03-03T01:32:05;131.63;;;49.30;;
37309;SDS011;23195;47.744;7.358;2023-03-03T01:34:31;130.47;;;49.57;;
37309;SDS011;23195;47.744;7.358;2023-03-03T01:36:56;126.40;;;48.47;;
37309;SDS011;23195;47.744;7.358;2023-03-03T01:39:23;126.97;;;46.80;;
37309;SDS011;23195;47.744;7.358;2023-03-03T01:41:48;120.63;;;47.00;;
37309;SDS011;23195;47.744;7.358;2023-03-03T01:44:14;119.80;;;46.27;;
37309;SDS011;23195;47.744;7.358;2023-03-03T01:52:44;110.53;;;43.30;;
37309;SDS011;23195;47.744;7.358;2023-03-03T01:55:21;105.13;;;42.20;;
37309;SDS011;23195;47.744;7.358;2023-03-03T01:57:57;112.80;;;43.23;;
37309;SDS011;23195;47.744;7.358;2023-03-03T02:00:26;108.10;;;43.37;;
37309;SDS011;23195;47.744;7.358;2023-03-03T02:02:53;112.50;;;43.77;;
37309;SDS011;23195;47.744;7.358;2023-03-03T02:05:19;116.20;;;44.00;;
37309;SDS011;23195;47.744;7.358;2023-03-03T02:07:46;121.23;;;46.03;;
37309;SDS011;23195;47.744;7.358;2023-03-03T02:10:13;111.80;;;43.53;;
37309;SDS011;23195;47.744;7.358;2023-03-03T02:17:51;110.30;;;43.07;;
37309;SDS011;23195;47.744;7.358;2023-03-03T02:20:23;104.30;;;42.90;;
37309;SDS011;23195;47.744;7.358;2023-03-03T02:25:36;106.87;;;43.13;;
37309;SDS011;23195;47.744;7.358;2023-03-03T02:28:16;108.27;;;41.47;;
37309;SDS011;23195;47.744;7.358;2023-03-03T02:30:42;108.30;;;43.10;;
37309;SDS011;23195;47.744;7.358;2023-03-03T02:33:08;111.90;;;42.97;;
37309;SDS011;23195;47.744;7.358;2023-03-03T02:35:37;110.23;;;42.93;;
37309;SDS011;23195;47.744;7.358;2023-03-03T02:38:13;108.47;;;43.43;;
37309;SDS011;23195;47.744;7.358;2023-03-03T02:40:46;118.27;;;43.53;;
37309;SDS011;23195;47.744;7.358;2023-03-03T02:43:40;116.67;;;43.97;;
37309;SDS011;23195;47.744;7.358;2023-03-03T02:46:20;117.33;;;43.67;;
37309;SDS011;23195;47.744;7.358;2023-03-03T02:48:46;105.50;;;44.47;;
37309;SDS011;23195;47.744;7.358;2023-03-03T02:51:12;116.57;;;46.80;;
37309;SDS011;23195;47.744;7.358;2023-03-03T02:53:41;118.27;;;45.10;;
37309;SDS011;23195;47.744;7.358;2023-03-03T02:56:06;112.93;;;45.10;;
37309;SDS011;23195;47.744;7.358;2023-03-03T02:58:34;115.53;;;46.70;;
37309;SDS011;23195;47.744;7.358;2023-03-03T03:01:00;121.67;;;44.70;;
37309;SDS011;23195;47.744;7.358;2023-03-03T03:03:29;123.33;;;46.37;;
37309;SDS011;23195;47.744;7.358;2023-03-03T03:05:54;122.80;;;48.03;;
37309;SDS011;23195;47.744;7.358;2023-03-03T03:08:20;121.67;;;46.83;;
37309;SDS011;23195;47.744;7.358;2023-03-03T03:10:46;118.73;;;46.37;;
37309;SDS011;23195;47.744;7.358;2023-03-03T03:13:14;115.00;;;45.87;;
37309;SDS011;23195;47.744;7.358;2023-03-03T03:15:40;117.90;;;47.50;;
37309;SDS011;23195;47.744;7.358;2023-03-03T03:18:06;113.13;;;45.13;;
37309;SDS011;23195;47.744;7.358;2023-03-03T03:20:35;125.27;;;47.13;;
37309;SDS011;23195;47.744;7.358;2023-03-03T03:23:04;126.00;;;46.63;;
37309;SDS011;23195;47.744;7.358;2023-03-03T03:25:30;117.07;;;47.07;;
37309;SDS011;23195;47.744;7.358;2023-03-03T03:27:56;120.13;;;46.50;;
37309;SDS011;23195;47.744;7.358;2023-03-03T03:30:25;120.57;;;45.50;;
37309;SDS011;23195;47.744;7.358;2023-03-03T03:32:51;123.10;;;47.97;;
37309;SDS011;23195;47.744;7.358;2023-03-03T03:35:16;116.67;;;45.87;;
37309;SDS011;23195;47.744;7.358;2023-03-03T03:37:43;114.10;;;44.90;;
37309;SDS011;23195;47.744;7.358;2023-03-03T03:40:09;118.67;;;46.23;;
37309;SDS011;23195;47.744;7.358;2023-03-03T03:42:35;121.77;;;45.50;;
37309;SDS011;23195;47.744;7.358;2023-03-03T03:45:03;117.93;;;44.97;;
37309;SDS011;23195;47.744;7.358;2023-03-03T03:47:30;120.37;;;45.50;;
37309;SDS011;23195;47.744;7.358;2023-03-03T03:49:55;129.50;;;47.00;;
37309;SDS011;23195;47.744;7.358;2023-03-03T03:52:21;118.67;;;44.03;;
37309;SDS011;23195;47.744;7.358;2023-03-03T03:54:47;114.53;;;43.03;;
37309;SDS011;23195;47.744;7.358;2023-03-03T03:57:13;115.70;;;44.00;;
37309;SDS011;23195;47.744;7.358;2023-03-03T03:59:38;114.33;;;43.67;;
37309;SDS011;23195;47.744;7.358;2023-03-03T04:02:04;115.90;;;44.67;;
37309;SDS011;23195;47.744;7.358;2023-03-03T04:04:30;122.07;;;45.63;;
37309;SDS011;23195;47.744;7.358;2023-03-03T04:06:59;115.13;;;44.93;;
37309;SDS011;23195;47.744;7.358;2023-03-03T04:09:24;123.23;;;45.03;;
37309;SDS011;23195;47.744;7.358;2023-03-03T04:11:52;124.53;;;46.47;;
37309;SDS011;23195;47.744;7.358;2023-03-03T04:14:18;124.23;;;45.87;;
37309;SDS011;23195;47.744;7.358;2023-03-03T04:16:43;117.90;;;45.67;;
37309;SDS011;23195;47.744;7.358;2023-03-03T04:19:09;118.10;;;44.63;;
37309;SDS011;23195;47.744;7.358;2023-03-03T04:21:35;115.57;;;44.57;;
37309;SDS011;23195;47.744;7.358;2023-03-03T04:24:04;126.33;;;48.03;;
37309;SDS011;23195;47.744;7.358;2023-03-03T04:26:30;112.10;;;43.93;;
37309;SDS011;23195;47.744;7.358;2023-03-03T04:28:56;110.17;;;43.53;;
37309;SDS011;23195;47.744;7.358;2023-03-03T04:31:23;118.83;;;45.13;;
37309;SDS011;23195;47.744;7.358;2023-03-03T04:33:50;122.20;;;46.73;;
37309;SDS011;23195;47.744;7.358;2023-03-03T04:36:16;126.03;;;48.83;;
37309;SDS011;23195;47.744;7.358;2023-03-03T04:38:42;126.70;;;47.53;;
37309;SDS011;23195;47.744;7.358;2023-03-03T04:41:08;124.27;;;46.23;;
37309;SDS011;23195;47.744;7.358;2023-03-03T04:43:33;123.43;;;47.13;;
37309;SDS011;23195;47.744;7.358;2023-03-03T04:45:59;119.17;;;45.60;;
37309;SDS011;23195;47.744;7.358;2023-03-03T04:48:27;115.97;;;44.10;;
37309;SDS011;23195;47.744;7.358;2023-03-03T04:50:55;118.23;;;45.00;;
37309;SDS011;23195;47.744;7.358;2023-03-03T04:53:21;124.10;;;44.87;;
37309;SDS011;23195;47.744;7.358;2023-03-03T04:55:51;116.17;;;45.03;;
37309;SDS011;23195;47.744;7.358;2023-03-03T04:58:18;133.97;;;46.97;;
37309;SDS011;23195;47.744;7.358;2023-03-03T05:01:02;121.60;;;45.47;;
37309;SDS011;23195;47.744;7.358;2023-03-03T05:03:28;124.20;;;47.83;;
37309;SDS011;23195;47.744;7.358;2023-03-03T05:05:54;118.97;;;45.63;;
37309;SDS011;23195;47.744;7.358;2023-03-03T05:08:20;126.17;;;48.90;;
37309;SDS011;23195;47.744;7.358;2023-03-03T05:10:46;124.30;;;47.13;;
37309;SDS011;23195;47.744;7.358;2023-03-03T05:13:19;118.37;;;46.10;;
37309;SDS011;23195;47.744;7.358;2023-03-03T05:15:49;122.17;;;46.90;;
37309;SDS011;23195;47.744;7.358;2023-03-03T05:18:17;136.23;;;47.27;;
37309;SDS011;23195;47.744;7.358;2023-03-03T05:20:47;124.87;;;48.83;;
37309;SDS011;23195;47.744;7.358;2023-03-03T05:23:13;122.83;;;47.70;;
37309;SDS011;23195;47.744;7.358;2023-03-03T05:25:39;133.10;;;47.37;;
37309;SDS011;23195;47.744;7.358;2023-03-03T05:28:06;126.07;;;47.93;;
37309;SDS011;23195;47.744;7.358;2023-03-03T05:30:32;130.90;;;48.33;;
37309;SDS011;23195;47.744;7.358;2023-03-03T05:32:58;134.60;;;47.83;;
37309;SDS011;23195;47.744;7.358;2023-03-03T05:35:24;133.23;;;46.70;;
37309;SDS011;23195;47.744;7.358;2023-03-03T05:37:50;125.37;;;47.57;;
37309;SDS011;23195;47.744;7.358;2023-03-03T05:40:16;127.27;;;46.30;;
37309;SDS011;23195;47.744;7.358;2023-03-03T05:42:43;131.33;;;46.13;;
37309;SDS011;23195;47.744;7.358;2023-03-03T05:45:09;125.30;;;46.97;;
37309;SDS011;23195;47.744;7.358;2023-03-03T05:47:36;119.80;;;45.67;;
37309;SDS011;23195;47.744;7.358;2023-03-03T05:50:02;123.43;;;46.93;;
37309;SDS011;23195;47.744;7.358;2023-03-03T05:52:28;123.93;;;44.77;;
37309;SDS011;23195;47.744;7.358;2023-03-03T05:54:54;123.93;;;47.03;;
37309;SDS011;23195;47.744;7.358;2023-03-03T05:57:19;127.97;;;47.03;;
37309;SDS011;23195;47.744;7.358;2023-03-03T05:59:45;120.53;;;46.90;;
37309;SDS011;23195;47.744;7.358;2023-03-03T06:02:11;126.67;;;47.37;;
37309;SDS011;23195;47.744;7.358;2023-03-03T06:04:37;122.07;;;47.03;;
37309;SDS011;23195;47.744;7.358;2023-03-03T06:07:03;120.03;;;45.93;;
37309;SDS011;23195;47.744;7.358;2023-03-03T06:09:30;130.93;;;47.77;;
37309;SDS011;23195;47.744;7.358;2023-03-03T06:11:59;120.43;;;45.77;;
37309;SDS011;23195;47.744;7.358;2023-03-03T06:14:25;117.60;;;45.53;;
37309;SDS011;23195;47.744;7.358;2023-03-03T06:16:50;116.63;;;44.20;;
37309;SDS011;23195;47.744;7.358;2023-03-03T06:19:16;121.70;;;45.07;;
37309;SDS011;23195;47.744;7.358;2023-03-03T06:21:45;115.53;;;43.90;;
37309;SDS011;23195;47.744;7.358;2023-03-03T06:24:11;113.17;;;44.70;;
37309;SDS011;23195;47.744;7.358;2023-03-03T06:26:36;118.67;;;44.73;;
37309;SDS011;23195;47.744;7.358;2023-03-03T06:29:02;107.77;;;42.60;;
37309;SDS011;23195;47.744;7.358;2023-03-03T06:31:28;112.40;;;43.30;;
37309;SDS011;23195;47.744;7.358;2023-03-03T06:33:54;116.50;;;44.30;;
37309;SDS011;23195;47.744;7.358;2023-03-03T06:36:19;114.60;;;43.50;;
37309;SDS011;23195;47.744;7.358;2023-03-03T06:38:45;109.47;;;42.40;;
37309;SDS011;23195;47.744;7.358;2023-03-03T06:41:11;111.30;;;43.40;;
37309;SDS011;23195;47.744;7.358;2023-03-03T06:43:37;108.33;;;42.63;;
37309;SDS011;23195;47.744;7.358;2023-03-03T06:46:03;106.47;;;41.80;;
37309;SDS011;23195;47.744;7.358;2023-03-03T06:48:30;105.67;;;42.97;;
37309;SDS011;23195;47.744;7.358;2023-03-03T06:50:57;113.10;;;42.03;;
37309;SDS011;23195;47.744;7.358;2023-03-03T06:53:25;103.07;;;42.13;;
37309;SDS011;23195;47.744;7.358;2023-03-03T06:55:51;101.47;;;42.07;;
37309;SDS011;23195;47.744;7.358;2023-03-03T06:58:19;108.80;;;44.50;;
37309;SDS011;23195;47.744;7.358;2023-03-03T07:03:19;105.33;;;43.03;;
37309;SDS011;23195;47.744;7.358;2023-03-03T07:05:47;109.17;;;44.07;;
37309;SDS011;23195;47.744;7.358;2023-03-03T07:08:20;103.60;;;42.80;;
37309;SDS011;23195;47.744;7.358;2023-03-03T07:10:51;101.30;;;42.10;;
37309;SDS011;23195;47.744;7.358;2023-03-03T07:13:19;103.50;;;41.37;;
37309;SDS011;23195;47.744;7.358;2023-03-03T07:15:53;110.20;;;43.90;;
37309;SDS011;23195;47.744;7.358;2023-03-03T07:18:51;103.53;;;42.23;;
37309;SDS011;23195;47.744;7.358;2023-03-03T07:21:32;100.13;;;41.43;;
37309;SDS011;23195;47.744;7.358;2023-03-03T07:26:55;97.77;;;40.27;;
37309;SDS011;23195;47.744;7.358;2023-03-03T07:29:30;98.40;;;40.27;;
37309;SDS011;23195;47.744;7.358;2023-03-03T07:32:02;99.93;;;41.27;;
37309;SDS011;23195;47.744;7.358;2023-03-03T07:34:43;104.03;;;42.97;;
37309;SDS011;23195;47.744;7.358;2023-03-03T07:37:41;92.07;;;39.43;;
37309;SDS011;23195;47.744;7.358;2023-03-03T07:42:56;93.50;;;40.70;;
37309;SDS011;23195;47.744;7.358;2023-03-03T07:45:35;100.00;;;43.87;;
37309;SDS011;23195;47.744;7.358;2023-03-03T07:50:52;103.87;;;42.27;;
37309;SDS011;23195;47.744;7.358;2023-03-03T07:53:31;90.57;;;40.13;;
37309;SDS011;23195;47.744;7.358;2023-03-03T07:56:00;92.03;;;39.53;;
37309;SDS011;23195;47.744;7.358;2023-03-03T07:58:34;87.97;;;39.00;;
37309;SDS011;23195;47.744;7.358;2023-03-03T08:03:46;94.47;;;42.00;;
37309;SDS011;23195;47.744;7.358;2023-03-03T08:09:00;97.70;;;40.17;;
37309;SDS011;23195;47.744;7.358;2023-03-03T08:11:50;87.43;;;39.43;;
37309;SDS011;23195;47.744;7.358;2023-03-03T08:14:32;91.30;;;40.40;;
37309;SDS011;23195;47.744;7.358;2023-03-03T08:17:00;91.10;;;39.80;;
37309;SDS011;23195;47.744;7.358;2023-03-03T08:19:31;88.53;;;38.10;;
37309;SDS011;23195;47.744;7.358;2023-03-03T08:22:05;85.17;;;38.67;;
37309;SDS011;23195;47.744;7.358;2023-03-03T08:24:42;82.13;;;37.40;;
37309;SDS011;23195;47.744;7.358;2023-03-03T08:27:07;87.93;;;38.90;;
37309;SDS011;23195;47.744;7.358;2023-03-03T08:29:33;80.17;;;36.50;;
37309;SDS011;23195;47.744;7.358;2023-03-03T08:31:59;82.23;;;37.00;;
37309;SDS011;23195;47.744;7.358;2023-03-03T08:34:24;83.60;;;36.60;;
37309;SDS011;23195;47.744;7.358;2023-03-03T08:36:50;81.60;;;36.87;;
37309;SDS011;23195;47.744;7.358;2023-03-03T08:39:16;84.03;;;38.07;;
37309;SDS011;23195;47.744;7.358;2023-03-03T08:41:43;85.30;;;36.93;;
37309;SDS011;23195;47.744;7.358;2023-03-03T08:44:10;84.53;;;37.20;;
37309;SDS011;23195;47.744;7.358;2023-03-03T08:46:36;83.90;;;37.60;;
37309;SDS011;23195;47.744;7.358;2023-03-03T08:49:02;80.60;;;36.33;;
37309;SDS011;23195;47.744;7.358;2023-03-03T08:51:28;87.30;;;38.00;;
37309;SDS011;23195;47.744;7.358;2023-03-03T08:53:54;76.53;;;36.77;;
37309;SDS011;23195;47.744;7.358;2023-03-03T08:56:22;79.43;;;36.33;;
37309;SDS011;23195;47.744;7.358;2023-03-03T08:58:48;80.47;;;36.47;;
37309;SDS011;23195;47.744;7.358;2023-03-03T09:01:14;77.83;;;37.27;;
37309;SDS011;23195;47.744;7.358;2023-03-03T09:03:41;83.13;;;38.10;;
37309;SDS011;23195;47.744;7.358;2023-03-03T09:06:07;78.70;;;37.97;;
37309;SDS011;23195;47.744;7.358;2023-03-03T09:08:33;78.17;;;36.70;;
37309;SDS011;23195;47.744;7.358;2023-03-03T09:10:59;80.77;;;37.50;;
37309;SDS011;23195;47.744;7.358;2023-03-03T09:13:27;85.63;;;40.07;;
37309;SDS011;23195;47.744;7.358;2023-03-03T09:15:57;76.97;;;38.60;;
37309;SDS011;23195;47.744;7.358;2023-03-03T09:18:36;80.43;;;37.83;;
37309;SDS011;23195;47.744;7.358;2023-03-03T09:21:15;86.97;;;39.90;;
37309;SDS011;23195;47.744;7.358;2023-03-03T09:23:59;82.30;;;39.53;;
37309;SDS011;23195;47.744;7.358;2023-03-03T09:28:55;86.57;;;41.20;;
37309;SDS011;23195;47.744;7.358;2023-03-03T09:36:42;89.27;;;41.70;;
37309;SDS011;23195;47.744;7.358;2023-03-03T09:39:28;85.97;;;40.60;;
37309;SDS011;23195;47.744;7.358;2023-03-03T10:04:12;89.47;;;41.97;;
37309;SDS011;23195;47.744;7.358;2023-03-03T10:12:58;87.30;;;42.33;;
37309;SDS011;23195;47.744;7.358;2023-03-03T10:18:31;89.57;;;42.50;;
37309;SDS011;23195;47.744;7.358;2023-03-03T10:21:24;88.47;;;42.23;;
37309;SDS011;23195;47.744;7.358;2023-03-03T10:27:01;83.17;;;40.67;;
37309;SDS011;23195;47.744;7.358;2023-03-03T10:29:52;85.07;;;38.97;;
37309;SDS011;23195;47.744;7.358;2023-03-03T10:32:46;83.67;;;40.50;;
37309;SDS011;23195;47.744;7.358;2023-03-03T10:41:10;89.03;;;41.07;;
37309;SDS011;23195;47.744;7.358;2023-03-03T10:46:37;83.27;;;38.00;;
37309;SDS011;23195;47.744;7.358;2023-03-03T10:49:21;82.90;;;38.20;;
37309;SDS011;23195;47.744;7.358;2023-03-03T11:00:15;86.40;;;37.93;;
37309;SDS011;23195;47.744;7.358;2023-03-03T11:08:25;78.57;;;35.80;;
37309;SDS011;23195;47.744;7.358;2023-03-03T11:11:36;78.83;;;35.60;;
37309;SDS011;23195;47.744;7.358;2023-03-03T11:14:12;77.90;;;36.23;;
37309;SDS011;23195;47.744;7.358;2023-03-03T11:24:39;75.47;;;35.13;;
37309;SDS011;23195;47.744;7.358;2023-03-03T11:27:28;75.60;;;37.03;;
37309;SDS011;23195;47.744;7.358;2023-03-03T11:32:53;76.73;;;36.23;;
37309;SDS011;23195;47.744;7.358;2023-03-03T11:35:33;77.80;;;37.97;;
37309;SDS011;23195;47.744;7.358;2023-03-03T11:45:52;75.40;;;36.27;;
37309;SDS011;23195;47.744;7.358;2023-03-03T11:54:00;77.27;;;35.57;;
37309;SDS011;23195;47.744;7.358;2023-03-03T12:02:13;75.37;;;36.27;;
37309;SDS011;23195;47.744;7.358;2023-03-03T12:05:32;81.37;;;37.07;;
37309;SDS011;23195;47.744;7.358;2023-03-03T12:13:26;75.03;;;34.37;;
37309;SDS011;23195;47.744;7.358;2023-03-03T12:16:23;71.27;;;34.20;;
37309;SDS011;23195;47.744;7.358;2023-03-03T12:24:41;74.77;;;36.97;;
37309;SDS011;23195;47.744;7.358;2023-03-03T12:27:24;79.37;;;37.67;;
37309;SDS011;23195;47.744;7.358;2023-03-03T12:38:54;79.07;;;36.23;;
37309;SDS011;23195;47.744;7.358;2023-03-03T12:41:26;77.57;;;36.60;;
37309;SDS011;23195;47.744;7.358;2023-03-03T12:44:25;74.50;;;35.50;;
37309;SDS011;23195;47.744;7.358;2023-03-03T13:01:11;69.93;;;33.17;;
37309;SDS011;23195;47.744;7.358;2023-03-03T13:04:04;69.37;;;33.60;;
37309;SDS011;23195;47.744;7.358;2023-03-03T13:06:58;66.43;;;33.00;;
37309;SDS011;23195;47.744;7.358;2023-03-03T13:09:57;67.00;;;33.10;;
37309;SDS011;23195;47.744;7.358;2023-03-03T13:12:47;77.07;;;33.97;;
37309;SDS011;23195;47.744;7.358;2023-03-03T13:23:54;73.30;;;35.30;;
37309;SDS011;23195;47.744;7.358;2023-03-03T13:38:08;71.13;;;35.57;;
37309;SDS011;23195;47.744;7.358;2023-03-03T13:40:39;72.90;;;35.93;;
37309;SDS011;23195;47.744;7.358;2023-03-03T13:43:12;85.10;;;37.43;;
37309;SDS011;23195;47.744;7.358;2023-03-03T13:51:47;74.50;;;35.33;;
37309;SDS011;23195;47.744;7.358;2023-03-03T13:54:17;74.43;;;35.70;;
37309;SDS011;23195;47.744;7.358;2023-03-03T14:10:24;64.20;;;31.70;;
37309;SDS011;23195;47.744;7.358;2023-03-03T14:15:55;74.40;;;34.53;;
37309;SDS011;23195;47.744;7.358;2023-03-03T14:21:34;70.40;;;34.87;;
37309;SDS011;23195;47.744;7.358;2023-03-03T14:24:23;75.80;;;35.43;;
37309;SDS011;23195;47.744;7.358;2023-03-03T14:26:54;71.70;;;33.73;;
37309;SDS011;23195;47.744;7.358;2023-03-03T14:29:31;76.40;;;35.40;;
37309;SDS011;23195;47.744;7.358;2023-03-03T14:32:02;70.60;;;35.43;;
37309;SDS011;23195;47.744;7.358;2023-03-03T14:34:47;72.73;;;35.10;;
37309;SDS011;23195;47.744;7.358;2023-03-03T14:37:41;74.47;;;36.00;;
37309;SDS011;23195;47.744;7.358;2023-03-03T14:45:28;74.70;;;37.13;;
37309;SDS011;23195;47.744;7.358;2023-03-03T14:48:21;77.90;;;36.20;;
37309;SDS011;23195;47.744;7.358;2023-03-03T14:50:58;70.50;;;34.70;;
37309;SDS011;23195;47.744;7.358;2023-03-03T14:53:42;68.77;;;34.43;;
37309;SDS011;23195;47.744;7.358;2023-03-03T14:56:20;71.23;;;34.07;;
37309;SDS011;23195;47.744;7.358;2023-03-03T15:01:37;69.10;;;33.37;;
37309;SDS011;23195;47.744;7.358;2023-03-03T15:04:04;65.33;;;32.07;;
37309;SDS011;23195;47.744;7.358;2023-03-03T15:06:47;64.33;;;33.23;;
37309;SDS011;23195;47.744;7.358;2023-03-03T15:09:38;61.53;;;31.20;;
37309;SDS011;23195;47.744;7.358;2023-03-03T15:17:56;64.37;;;31.00;;
37309;SDS011;23195;47.744;7.358;2023-03-03T15:20:44;58.93;;;30.30;;
37309;SDS011;23195;47.744;7.358;2023-03-03T15:23:33;66.20;;;30.10;;
37309;SDS011;23195;47.744;7.358;2023-03-03T15:31:59;55.97;;;28.80;;
37309;SDS011;23195;47.744;7.358;2023-03-03T15:40:52;62.33;;;29.37;;
37309;SDS011;23195;47.744;7.358;2023-03-03T15:52:59;62.87;;;29.43;;
37309;SDS011;23195;47.744;7.358;2023-03-03T16:01:28;59.10;;;29.93;;
37309;SDS011;23195;47.744;7.358;2023-03-03T16:04:05;59.23;;;29.57;;
37309;SDS011;23195;47.744;7.358;2023-03-03T16:06:52;65.90;;;30.30;;
37309;SDS011;23195;47.744;7.358;2023-03-03T16:20:22;63.63;;;30.57;;
37309;SDS011;23195;47.744;7.358;2023-03-03T16:23:16;62.37;;;30.30;;
37309;SDS011;23195;47.744;7.358;2023-03-03T16:31:28;61.53;;;31.83;;
37309;SDS011;23195;47.744;7.358;2023-03-03T16:48:59;63.53;;;32.27;;
37309;SDS011;23195;47.744;7.358;2023-03-03T16:52:39;60.20;;;31.90;;
37309;SDS011;23195;47.744;7.358;2023-03-03T16:54:38;69.63;;;32.27;;
37309;SDS011;23195;47.744;7.358;2023-03-03T17:10:30;65.07;;;31.67;;
37309;SDS011;23195;47.744;7.358;2023-03-03T17:16:26;59.73;;;31.33;;
37309;SDS011;23195;47.744;7.358;2023-03-03T17:24:40;68.90;;;31.53;;
37309;SDS011;23195;47.744;7.358;2023-03-03T17:41:51;67.67;;;34.70;;
37309;SDS011;23195;47.744;7.358;2023-03-03T17:44:29;74.73;;;34.17;;
37309;SDS011;23195;47.744;7.358;2023-03-03T17:47:41;65.67;;;32.93;;
37309;SDS011;23195;47.744;7.358;2023-03-03T18:01:12;73.97;;;33.90;;
37309;SDS011;23195;47.744;7.358;2023-03-03T18:03:59;71.33;;;34.03;;
37309;SDS011;23195;47.744;7.358;2023-03-03T18:09:57;73.80;;;36.30;;
37309;SDS011;23195;47.744;7.358;2023-03-03T18:18:29;75.27;;;36.33;;
37309;SDS011;23195;47.744;7.358;2023-03-03T18:26:50;78.70;;;36.87;;
37309;SDS011;23195;47.744;7.358;2023-03-03T18:29:18;74.80;;;36.10;;
37309;SDS011;23195;47.744;7.358;2023-03-03T18:37:05;71.20;;;35.57;;
37309;SDS011;23195;47.744;7.358;2023-03-03T18:42:50;71.13;;;35.17;;
37309;SDS011;23195;47.744;7.358;2023-03-03T18:48:00;69.57;;;34.67;;
37309;SDS011;23195;47.744;7.358;2023-03-03T18:50:46;72.43;;;34.83;;
37309;SDS011;23195;47.744;7.358;2023-03-03T18:53:24;71.33;;;33.83;;
37309;SDS011;23195;47.744;7.358;2023-03-03T18:55:51;74.93;;;35.37;;
37309;SDS011;23195;47.744;7.358;2023-03-03T18:58:26;73.90;;;36.23;;
37309;SDS011;23195;47.744;7.358;2023-03-03T19:06:28;75.97;;;37.10;;
37309;SDS011;23195;47.744;7.358;2023-03-03T19:15:54;69.80;;;36.37;;
37309;SDS011;23195;47.744;7.358;2023-03-03T19:20:26;79.40;;;37.43;;
37309;SDS011;23195;47.744;7.358;2023-03-03T19:23:07;84.80;;;37.37;;
37309;SDS011;23195;47.744;7.358;2023-03-03T19:25:37;77.47;;;37.63;;
37309;SDS011;23195;47.744;7.358;2023-03-03T19:31:00;79.10;;;37.37;;
37309;SDS011;23195;47.744;7.358;2023-03-03T19:39:02;74.80;;;36.87;;
37309;SDS011;23195;47.744;7.358;2023-03-03T19:56:02;76.53;;;36.43;;
37309;SDS011;23195;47.744;7.358;2023-03-03T19:58:54;77.00;;;37.50;;
37309;SDS011;23195;47.744;7.358;2023-03-03T20:01:43;79.93;;;37.40;;
37309;SDS011;23195;47.744;7.358;2023-03-03T20:12:32;76.63;;;37.50;;
37309;SDS011;23195;47.744;7.358;2023-03-03T20:40:10;82.23;;;38.53;;
37309;SDS011;23195;47.744;7.358;2023-03-03T20:42:50;76.83;;;38.97;;
37309;SDS011;23195;47.744;7.358;2023-03-03T20:45:40;80.70;;;39.03;;
37309;SDS011;23195;47.744;7.358;2023-03-03T20:48:22;85.03;;;38.77;;
37309;SDS011;23195;47.744;7.358;2023-03-03T20:51:09;79.40;;;38.20;;
37309;SDS011;23195;47.744;7.358;2023-03-03T20:54:15;80.67;;;37.53;;
37309;SDS011;23195;47.744;7.358;2023-03-03T21:02:03;78.80;;;38.00;;
37309;SDS011;23195;47.744;7.358;2023-03-03T21:05:17;80.60;;;39.23;;
37309;SDS011;23195;47.744;7.358;2023-03-03T21:10:34;79.63;;;38.83;;
37309;SDS011;23195;47.744;7.358;2023-03-03T21:16:02;81.10;;;38.10;;
37309;SDS011;23195;47.744;7.358;2023-03-03T21:19:03;80.47;;;39.23;;
37309;SDS011;23195;47.744;7.358;2023-03-03T21:21:31;80.93;;;38.87;;
37309;SDS011;23195;47.744;7.358;2023-03-03T21:24:01;83.53;;;39.77;;
37309;SDS011;23195;47.744;7.358;2023-03-03T21:29:17;82.23;;;36.60;;
37309;SDS011;23195;47.744;7.358;2023-03-03T21:31:47;80.30;;;38.63;;
37309;SDS011;23195;47.744;7.358;2023-03-03T21:35:02;86.47;;;38.37;;
37309;SDS011;23195;47.744;7.358;2023-03-03T21:37:11;82.50;;;40.20;;
37309;SDS011;23195;47.744;7.358;2023-03-03T21:39:41;85.37;;;39.50;;
37309;SDS011;23195;47.744;7.358;2023-03-03T21:42:12;82.47;;;39.40;;
37309;SDS011;23195;47.744;7.358;2023-03-03T21:44:40;92.50;;;40.07;;
37309;SDS011;23195;47.744;7.358;2023-03-03T21:47:09;83.30;;;38.30;;
37309;SDS011;23195;47.744;7.358;2023-03-03T21:49:41;79.93;;;37.90;;
37309;SDS011;23195;47.744;7.358;2023-03-03T21:52:08;78.97;;;37.33;;
37309;SDS011;23195;47.744;7.358;2023-03-03T21:54:35;85.53;;;38.60;;
37309;SDS011;23195;47.744;7.358;2023-03-03T21:57:01;80.87;;;38.03;;
37309;SDS011;23195;47.744;7.358;2023-03-03T21:59:26;76.90;;;37.20;;
37309;SDS011;23195;47.744;7.358;2023-03-03T22:01:52;78.33;;;37.80;;
37309;SDS011;23195;47.744;7.358;2023-03-03T22:04:21;81.30;;;37.77;;
37309;SDS011;23195;47.744;7.358;2023-03-03T22:06:47;79.97;;;38.70;;
37309;SDS011;23195;47.744;7.358;2023-03-03T22:09:13;77.37;;;36.53;;
37309;SDS011;23195;47.744;7.358;2023-03-03T22:11:39;83.00;;;37.90;;
37309;SDS011;23195;47.744;7.358;2023-03-03T22:14:05;85.30;;;38.53;;
37309;SDS011;23195;47.744;7.358;2023-03-03T22:16:31;83.93;;;37.80;;